sensor_id;sensor_type;location;lat;lon;timestamp;temperature;humidity
18712;DHT22;9485;49.386;8.674;2022-11-18T00:04:35;12.60;96.40
18712;DHT22;9485;49.386;8.674;2022-11-18T00:09:56;12.50;96.40
18712;DHT22;9485;49.386;8.674;2022-11-18T00:15:17;12.50;96.40
18712;DHT22;9485;49.386;8.674;2022-11-18T00:20:37;12.60;96.40
18712;DHT22;9485;49.386;8.674;2022-11-18T00:26:02;12.50;96.40
18712;DHT22;9485;49.386;8.674;2022-11-18T00:31:24;12.50;96.50
18712;DHT22;9485;49.386;8.674;2022-11-18T00:36:45;12.50;96.50
18712;DHT22;9485;49.386;8.674;2022-11-18T00:42:08;12.60;96.60
18712;DHT22;9485;49.386;8.674;2022-11-18T00:47:46;12.60;96.90
18712;DHT22;9485;49.386;8.674;2022-11-18T00:53:06;12.60;96.60
18712;DHT22;9485;49.386;8.674;2022-11-18T00:58:28;12.70;96.70
18712;DHT22;9485;49.386;8.674;2022-11-18T01:03:49;12.70;96.70
18712;DHT22;9485;49.386;8.674;2022-11-18T01:09:10;12.80;96.70
18712;DHT22;9485;49.386;8.674;2022-11-18T01:14:32;12.80;96.70
18712;DHT22;9485;49.386;8.674;2022-11-18T01:19:52;12.80;96.60
18712;DHT22;9485;49.386;8.674;2022-11-18T01:25:13;12.80;96.50
18712;DHT22;9485;49.386;8.674;2022-11-18T01:30:37;12.80;96.50
18712;DHT22;9485;49.386;8.674;2022-11-18T01:35:59;12.80;96.40
18712;DHT22;9485;49.386;8.674;2022-11-18T01:41:21;12.80;96.40
18712;DHT22;9485;49.386;8.674;2022-11-18T01:46:45;12.80;96.50
18712;DHT22;9485;49.386;8.674;2022-11-18T01:52:07;12.80;96.50
18712;DHT22;9485;49.386;8.674;2022-11-18T01:57:28;12.80;96.60
18712;DHT22;9485;49.386;8.674;2022-11-18T02:02:52;12.80;96.70
18712;DHT22;9485;49.386;8.674;2022-11-18T02:08:17;12.70;96.60
18712;DHT22;9485;49.386;8.674;2022-11-18T02:13:38;12.80;96.60
18712;DHT22;9485;49.386;8.674;2022-11-18T02:19:03;12.80;96.60
18712;DHT22;9485;49.386;8.674;2022-11-18T02:24:40;12.80;96.60
18712;DHT22;9485;49.386;8.674;2022-11-18T02:30:11;12.80;96.60
18712;DHT22;9485;49.386;8.674;2022-11-18T02:35:39;12.80;96.60
18712;DHT22;9485;49.386;8.674;2022-11-18T02:41:05;12.80;96.60
18712;DHT22;9485;49.386;8.674;2022-11-18T02:46:33;12.70;96.50
18712;DHT22;9485;49.386;8.674;2022-11-18T02:51:56;12.70;96.50
18712;DHT22;9485;49.386;8.674;2022-11-18T02:57:19;12.70;96.50
18712;DHT22;9485;49.386;8.674;2022-11-18T03:02:44;12.70;96.50
18712;DHT22;9485;49.386;8.674;2022-11-18T03:08:10;12.70;96.40
18712;DHT22;9485;49.386;8.674;2022-11-18T03:13:39;12.60;96.40
18712;DHT22;9485;49.386;8.674;2022-11-18T03:19:17;12.60;96.30
18712;DHT22;9485;49.386;8.674;2022-11-18T03:24:44;12.50;96.30
18712;DHT22;9485;49.386;8.674;2022-11-18T03:30:14;12.50;96.40
18712;DHT22;9485;49.386;8.674;2022-11-18T03:35:43;12.40;96.50
18712;DHT22;9485;49.386;8.674;2022-11-18T03:41:10;12.40;96.60
18712;DHT22;9485;49.386;8.674;2022-11-18T03:46:35;12.40;96.60
18712;DHT22;9485;49.386;8.674;2022-11-18T03:52:06;12.40;96.70
18712;DHT22;9485;49.386;8.674;2022-11-18T03:57:36;12.30;96.60
18712;DHT22;9485;49.386;8.674;2022-11-18T04:03:01;12.30;96.70
18712;DHT22;9485;49.386;8.674;2022-11-18T04:08:29;12.30;97.10
18712;DHT22;9485;49.386;8.674;2022-11-18T04:13:55;12.30;96.90
18712;DHT22;9485;49.386;8.674;2022-11-18T04:19:16;12.20;96.90
18712;DHT22;9485;49.386;8.674;2022-11-18T04:24:39;12.20;97.00
18712;DHT22;9485;49.386;8.674;2022-11-18T04:29:59;12.20;97.00
18712;DHT22;9485;49.386;8.674;2022-11-18T04:35:20;12.20;97.40
18712;DHT22;9485;49.386;8.674;2022-11-18T04:40:42;12.20;97.10
18712;DHT22;9485;49.386;8.674;2022-11-18T04:46:02;12.20;97.10
18712;DHT22;9485;49.386;8.674;2022-11-18T04:51:23;12.20;97.10
18712;DHT22;9485;49.386;8.674;2022-11-18T04:56:46;12.20;97.00
18712;DHT22;9485;49.386;8.674;2022-11-18T05:02:07;12.10;97.00
18712;DHT22;9485;49.386;8.674;2022-11-18T05:07:28;12.10;97.10
18712;DHT22;9485;49.386;8.674;2022-11-18T05:12:50;12.10;97.10
18712;DHT22;9485;49.386;8.674;2022-11-18T05:18:11;12.10;97.10
18712;DHT22;9485;49.386;8.674;2022-11-18T05:23:31;12.10;97.00
18712;DHT22;9485;49.386;8.674;2022-11-18T05:28:54;12.10;97.00
18712;DHT22;9485;49.386;8.674;2022-11-18T05:34:15;12.00;97.00
18712;DHT22;9485;49.386;8.674;2022-11-18T05:39:37;12.00;97.00
18712;DHT22;9485;49.386;8.674;2022-11-18T05:44:59;12.00;97.10
18712;DHT22;9485;49.386;8.674;2022-11-18T05:50:20;11.90;97.20
18712;DHT22;9485;49.386;8.674;2022-11-18T05:55:45;11.90;97.10
18712;DHT22;9485;49.386;8.674;2022-11-18T06:01:14;11.90;97.20
18712;DHT22;9485;49.386;8.674;2022-11-18T06:06:37;11.90;97.20
18712;DHT22;9485;49.386;8.674;2022-11-18T06:11:58;11.90;97.30
18712;DHT22;9485;49.386;8.674;2022-11-18T06:17:26;11.90;97.30
18712;DHT22;9485;49.386;8.674;2022-11-18T06:22:54;12.00;97.30
18712;DHT22;9485;49.386;8.674;2022-11-18T06:28:17;11.90;97.20
18712;DHT22;9485;49.386;8.674;2022-11-18T06:33:40;11.80;97.10
18712;DHT22;9485;49.386;8.674;2022-11-18T06:39:02;11.80;97.20
18712;DHT22;9485;49.386;8.674;2022-11-18T06:44:23;11.80;97.20
18712;DHT22;9485;49.386;8.674;2022-11-18T06:49:45;11.80;97.20
18712;DHT22;9485;49.386;8.674;2022-11-18T06:55:06;11.80;97.10
18712;DHT22;9485;49.386;8.674;2022-11-18T07:00:27;11.80;97.20
18712;DHT22;9485;49.386;8.674;2022-11-18T07:05:51;11.70;97.20
18712;DHT22;9485;49.386;8.674;2022-11-18T07:11:14;11.70;97.10
18712;DHT22;9485;49.386;8.674;2022-11-18T07:16:36;11.60;97.00
18712;DHT22;9485;49.386;8.674;2022-11-18T07:21:58;11.60;96.90
18712;DHT22;9485;49.386;8.674;2022-11-18T07:27:19;11.50;97.00
18712;DHT22;9485;49.386;8.674;2022-11-18T07:32:39;11.50;97.00
18712;DHT22;9485;49.386;8.674;2022-11-18T07:38:01;11.50;97.10
18712;DHT22;9485;49.386;8.674;2022-11-18T07:43:22;11.50;97.10
18712;DHT22;9485;49.386;8.674;2022-11-18T07:48:44;11.40;97.10
18712;DHT22;9485;49.386;8.674;2022-11-18T07:54:07;11.40;97.10
18712;DHT22;9485;49.386;8.674;2022-11-18T07:59:29;11.40;97.20
18712;DHT22;9485;49.386;8.674;2022-11-18T08:04:51;11.40;97.30
18712;DHT22;9485;49.386;8.674;2022-11-18T08:10:13;11.40;97.30
18712;DHT22;9485;49.386;8.674;2022-11-18T08:15:39;11.40;97.40
18712;DHT22;9485;49.386;8.674;2022-11-18T08:21:00;11.40;97.40
18712;DHT22;9485;49.386;8.674;2022-11-18T08:26:23;11.40;97.30
18712;DHT22;9485;49.386;8.674;2022-11-18T08:31:44;11.40;97.30
18712;DHT22;9485;49.386;8.674;2022-11-18T08:37:05;11.40;97.30
18712;DHT22;9485;49.386;8.674;2022-11-18T08:42:27;11.40;97.30
18712;DHT22;9485;49.386;8.674;2022-11-18T08:47:48;11.40;97.40
18712;DHT22;9485;49.386;8.674;2022-11-18T08:53:08;11.40;97.40
18712;DHT22;9485;49.386;8.674;2022-11-18T08:58:30;11.40;97.50
18712;DHT22;9485;49.386;8.674;2022-11-18T09:03:51;11.40;97.60
18712;DHT22;9485;49.386;8.674;2022-11-18T09:09:12;11.50;97.50
18712;DHT22;9485;49.386;8.674;2022-11-18T09:14:33;11.50;97.50
18712;DHT22;9485;49.386;8.674;2022-11-18T09:19:55;11.50;97.50
18712;DHT22;9485;49.386;8.674;2022-11-18T09:25:15;11.50;97.60
18712;DHT22;9485;49.386;8.674;2022-11-18T09:30:37;11.50;97.60
18712;DHT22;9485;49.386;8.674;2022-11-18T09:35:57;11.60;97.60
18712;DHT22;9485;49.386;8.674;2022-11-18T09:41:29;11.60;97.60
18712;DHT22;9485;49.386;8.674;2022-11-18T09:47:11;11.60;97.60
18712;DHT22;9485;49.386;8.674;2022-11-18T09:52:45;11.70;97.70
18712;DHT22;9485;49.386;8.674;2022-11-18T09:58:12;11.70;97.80
18712;DHT22;9485;49.386;8.674;2022-11-18T10:03:39;11.80;98.00
18712;DHT22;9485;49.386;8.674;2022-11-18T10:09:08;11.90;97.90
18712;DHT22;9485;49.386;8.674;2022-11-18T10:14:52;11.90;97.90
18712;DHT22;9485;49.386;8.674;2022-11-18T10:20:28;12.00;98.00
18712;DHT22;9485;49.386;8.674;2022-11-18T10:25:56;12.10;98.00
18712;DHT22;9485;49.386;8.674;2022-11-18T10:31:16;12.20;97.90
18712;DHT22;9485;49.386;8.674;2022-11-18T10:36:39;12.20;97.80
18712;DHT22;9485;49.386;8.674;2022-11-18T10:42:03;12.30;97.90
18712;DHT22;9485;49.386;8.674;2022-11-18T10:47:28;12.40;98.00
18712;DHT22;9485;49.386;8.674;2022-11-18T10:52:52;12.40;98.00
18712;DHT22;9485;49.386;8.674;2022-11-18T10:58:14;12.50;98.10
18712;DHT22;9485;49.386;8.674;2022-11-18T11:03:37;12.60;98.20
18712;DHT22;9485;49.386;8.674;2022-11-18T11:09:02;12.80;98.10
18712;DHT22;9485;49.386;8.674;2022-11-18T11:14:27;12.80;98.00
18712;DHT22;9485;49.386;8.674;2022-11-18T11:20:00;12.90;97.90
18712;DHT22;9485;49.386;8.674;2022-11-18T11:25:35;12.90;97.80
18712;DHT22;9485;49.386;8.674;2022-11-18T11:31:09;13.00;97.80
18712;DHT22;9485;49.386;8.674;2022-11-18T11:36:42;13.00;97.60
18712;DHT22;9485;49.386;8.674;2022-11-18T11:42:17;13.00;97.60
18712;DHT22;9485;49.386;8.674;2022-11-18T11:48:09;13.10;97.80
18712;DHT22;9485;49.386;8.674;2022-11-18T11:54:15;13.10;97.70
18712;DHT22;9485;49.386;8.674;2022-11-18T11:59:50;13.10;97.50
18712;DHT22;9485;49.386;8.674;2022-11-18T12:05:22;13.10;97.60
18712;DHT22;9485;49.386;8.674;2022-11-18T12:10:50;13.20;97.70
18712;DHT22;9485;49.386;8.674;2022-11-18T12:16:25;13.20;97.60
18712;DHT22;9485;49.386;8.674;2022-11-18T12:22:00;13.20;97.60
18712;DHT22;9485;49.386;8.674;2022-11-18T12:27:56;13.30;97.80
18712;DHT22;9485;49.386;8.674;2022-11-18T12:36:43;13.40;97.40
18712;DHT22;9485;49.386;8.674;2022-11-18T12:42:04;13.50;97.90
18712;DHT22;9485;49.386;8.674;2022-11-18T12:47:55;13.60;98.10
18712;DHT22;9485;49.386;8.674;2022-11-18T12:53:31;13.80;97.90
18712;DHT22;9485;49.386;8.674;2022-11-18T12:58:57;13.80;97.60
18712;DHT22;9485;49.386;8.674;2022-11-18T13:04:23;13.90;97.50
18712;DHT22;9485;49.386;8.674;2022-11-18T13:09:45;13.90;97.20
18712;DHT22;9485;49.386;8.674;2022-11-18T13:15:10;13.90;97.10
18712;DHT22;9485;49.386;8.674;2022-11-18T13:20:56;13.90;97.00
18712;DHT22;9485;49.386;8.674;2022-11-18T13:26:41;13.90;97.10
18712;DHT22;9485;49.386;8.674;2022-11-18T13:32:15;13.90;97.00
18712;DHT22;9485;49.386;8.674;2022-11-18T13:37:48;13.90;96.70
18712;DHT22;9485;49.386;8.674;2022-11-18T13:43:12;13.90;96.20
18712;DHT22;9485;49.386;8.674;2022-11-18T13:48:34;13.80;96.10
18712;DHT22;9485;49.386;8.674;2022-11-18T13:53:58;13.70;96.00
18712;DHT22;9485;49.386;8.674;2022-11-18T13:59:22;13.70;96.10
18712;DHT22;9485;49.386;8.674;2022-11-18T14:04:49;13.60;96.10
18712;DHT22;9485;49.386;8.674;2022-11-18T14:10:14;13.70;96.30
18712;DHT22;9485;49.386;8.674;2022-11-18T14:15:37;13.70;96.50
18712;DHT22;9485;49.386;8.674;2022-11-18T14:20:59;13.70;96.70
18712;DHT22;9485;49.386;8.674;2022-11-18T14:26:26;13.80;96.90
18712;DHT22;9485;49.386;8.674;2022-11-18T14:32:12;13.90;96.90
18712;DHT22;9485;49.386;8.674;2022-11-18T14:37:34;13.90;96.60
18712;DHT22;9485;49.386;8.674;2022-11-18T14:42:54;14.00;96.60
18712;DHT22;9485;49.386;8.674;2022-11-18T14:48:19;14.00;96.50
18712;DHT22;9485;49.386;8.674;2022-11-18T14:53:42;13.90;96.30
18712;DHT22;9485;49.386;8.674;2022-11-18T14:59:03;13.90;96.20
18712;DHT22;9485;49.386;8.674;2022-11-18T15:04:25;13.90;96.30
18712;DHT22;9485;49.386;8.674;2022-11-18T15:09:45;13.90;96.20
18712;DHT22;9485;49.386;8.674;2022-11-18T15:15:09;13.80;96.00
18712;DHT22;9485;49.386;8.674;2022-11-18T15:20:31;13.70;95.50
18712;DHT22;9485;49.386;8.674;2022-11-18T15:25:52;13.60;95.30
18712;DHT22;9485;49.386;8.674;2022-11-18T15:31:12;13.50;95.20
18712;DHT22;9485;49.386;8.674;2022-11-18T15:36:34;13.40;95.10
18712;DHT22;9485;49.386;8.674;2022-11-18T15:41:55;13.20;95.10
18712;DHT22;9485;49.386;8.674;2022-11-18T15:47:16;13.10;95.20
18712;DHT22;9485;49.386;8.674;2022-11-18T15:52:38;13.00;95.20
18712;DHT22;9485;49.386;8.674;2022-11-18T15:57:59;12.90;95.40
18712;DHT22;9485;49.386;8.674;2022-11-18T16:03:46;12.80;95.70
18712;DHT22;9485;49.386;8.674;2022-11-18T16:09:08;12.80;95.90
18712;DHT22;9485;49.386;8.674;2022-11-18T16:14:29;12.70;96.10
18712;DHT22;9485;49.386;8.674;2022-11-18T16:19:50;12.70;96.20
18712;DHT22;9485;49.386;8.674;2022-11-18T16:25:12;12.70;96.30
18712;DHT22;9485;49.386;8.674;2022-11-18T16:30:33;12.70;96.30
18712;DHT22;9485;49.386;8.674;2022-11-18T16:36:11;12.70;96.30
18712;DHT22;9485;49.386;8.674;2022-11-18T16:41:33;12.70;96.40
18712;DHT22;9485;49.386;8.674;2022-11-18T16:46:55;12.70;96.50
18712;DHT22;9485;49.386;8.674;2022-11-18T16:52:16;12.70;96.60
18712;DHT22;9485;49.386;8.674;2022-11-18T16:57:39;12.70;96.70
18712;DHT22;9485;49.386;8.674;2022-11-18T17:03:05;12.70;96.60
18712;DHT22;9485;49.386;8.674;2022-11-18T17:08:26;12.70;96.60
18712;DHT22;9485;49.386;8.674;2022-11-18T17:13:48;12.80;96.70
18712;DHT22;9485;49.386;8.674;2022-11-18T17:19:12;12.70;96.70
18712;DHT22;9485;49.386;8.674;2022-11-18T17:24:34;12.70;96.70
18712;DHT22;9485;49.386;8.674;2022-11-18T17:29:56;12.70;96.70
18712;DHT22;9485;49.386;8.674;2022-11-18T17:35:16;12.60;96.60
18712;DHT22;9485;49.386;8.674;2022-11-18T17:40:37;12.70;96.70
18712;DHT22;9485;49.386;8.674;2022-11-18T17:46:00;12.60;96.60
18712;DHT22;9485;49.386;8.674;2022-11-18T17:51:22;12.60;96.60
18712;DHT22;9485;49.386;8.674;2022-11-18T17:56:43;12.50;96.60
18712;DHT22;9485;49.386;8.674;2022-11-18T18:02:08;12.50;97.10
18712;DHT22;9485;49.386;8.674;2022-11-18T18:07:29;12.50;96.80
18712;DHT22;9485;49.386;8.674;2022-11-18T18:12:50;12.50;96.80
18712;DHT22;9485;49.386;8.674;2022-11-18T18:18:30;12.50;96.80
18712;DHT22;9485;49.386;8.674;2022-11-18T18:23:53;12.50;96.80
18712;DHT22;9485;49.386;8.674;2022-11-18T18:29:17;12.50;96.90
18712;DHT22;9485;49.386;8.674;2022-11-18T18:34:39;12.50;96.80
18712;DHT22;9485;49.386;8.674;2022-11-18T18:39:59;12.50;96.90
18712;DHT22;9485;49.386;8.674;2022-11-18T18:45:45;12.50;96.80
18712;DHT22;9485;49.386;8.674;2022-11-18T18:51:25;12.40;96.90
18712;DHT22;9485;49.386;8.674;2022-11-18T18:56:47;12.50;96.90
18712;DHT22;9485;49.386;8.674;2022-11-18T19:02:12;12.50;96.90
18712;DHT22;9485;49.386;8.674;2022-11-18T19:07:34;12.50;96.80
18712;DHT22;9485;49.386;8.674;2022-11-18T19:12:54;12.50;96.80
18712;DHT22;9485;49.386;8.674;2022-11-18T19:18:15;12.50;96.80
18712;DHT22;9485;49.386;8.674;2022-11-18T19:23:37;12.40;96.80
18712;DHT22;9485;49.386;8.674;2022-11-18T19:28:58;12.40;96.80
18712;DHT22;9485;49.386;8.674;2022-11-18T19:34:18;12.40;96.80
18712;DHT22;9485;49.386;8.674;2022-11-18T19:39:40;12.40;96.70
18712;DHT22;9485;49.386;8.674;2022-11-18T19:45:00;12.40;96.70
18712;DHT22;9485;49.386;8.674;2022-11-18T19:50:21;12.40;96.70
18712;DHT22;9485;49.386;8.674;2022-11-18T19:55:52;12.30;96.70
18712;DHT22;9485;49.386;8.674;2022-11-18T20:01:15;12.40;96.60
18712;DHT22;9485;49.386;8.674;2022-11-18T20:06:37;12.30;96.50
18712;DHT22;9485;49.386;8.674;2022-11-18T20:11:59;12.30;96.50
18712;DHT22;9485;49.386;8.674;2022-11-18T20:17:19;12.30;96.50
18712;DHT22;9485;49.386;8.674;2022-11-18T20:22:41;12.20;96.50
18712;DHT22;9485;49.386;8.674;2022-11-18T20:28:03;12.10;96.50
18712;DHT22;9485;49.386;8.674;2022-11-18T20:33:23;12.10;96.50
18712;DHT22;9485;49.386;8.674;2022-11-18T20:38:47;12.00;96.50
18712;DHT22;9485;49.386;8.674;2022-11-18T20:44:10;11.90;96.50
18712;DHT22;9485;49.386;8.674;2022-11-18T20:49:31;11.90;96.60
18712;DHT22;9485;49.386;8.674;2022-11-18T20:54:52;11.80;96.70
18712;DHT22;9485;49.386;8.674;2022-11-18T21:00:15;11.80;96.80
18712;DHT22;9485;49.386;8.674;2022-11-18T21:05:36;11.80;96.90
18712;DHT22;9485;49.386;8.674;2022-11-18T21:10:59;11.80;97.00
18712;DHT22;9485;49.386;8.674;2022-11-18T21:16:22;11.80;97.00
18712;DHT22;9485;49.386;8.674;2022-11-18T21:21:43;11.80;97.00
18712;DHT22;9485;49.386;8.674;2022-11-18T21:27:04;11.80;97.00
18712;DHT22;9485;49.386;8.674;2022-11-18T21:32:26;11.80;97.00
18712;DHT22;9485;49.386;8.674;2022-11-18T21:37:47;11.80;97.10
18712;DHT22;9485;49.386;8.674;2022-11-18T21:43:08;11.80;97.10
18712;DHT22;9485;49.386;8.674;2022-11-18T21:48:31;11.80;97.20
18712;DHT22;9485;49.386;8.674;2022-11-18T21:53:52;11.80;97.20
18712;DHT22;9485;49.386;8.674;2022-11-18T21:59:12;11.80;97.20
18712;DHT22;9485;49.386;8.674;2022-11-18T22:04:34;11.80;97.20
18712;DHT22;9485;49.386;8.674;2022-11-18T22:10:15;11.80;97.20
18712;DHT22;9485;49.386;8.674;2022-11-18T22:15:37;11.90;97.10
18712;DHT22;9485;49.386;8.674;2022-11-18T22:20:59;11.80;97.00
18712;DHT22;9485;49.386;8.674;2022-11-18T22:26:20;11.80;97.00
18712;DHT22;9485;49.386;8.674;2022-11-18T22:31:41;11.70;97.00
18712;DHT22;9485;49.386;8.674;2022-11-18T22:37:03;11.70;97.00
18712;DHT22;9485;49.386;8.674;2022-11-18T22:42:23;11.60;97.00
18712;DHT22;9485;49.386;8.674;2022-11-18T22:48:02;11.60;97.00
18712;DHT22;9485;49.386;8.674;2022-11-18T22:53:24;11.50;97.00
18712;DHT22;9485;49.386;8.674;2022-11-18T22:58:45;11.50;97.00
18712;DHT22;9485;49.386;8.674;2022-11-18T23:04:06;11.40;97.10
18712;DHT22;9485;49.386;8.674;2022-11-18T23:09:28;11.40;97.20
18712;DHT22;9485;49.386;8.674;2022-11-18T23:14:49;11.40;97.20
18712;DHT22;9485;49.386;8.674;2022-11-18T23:20:10;11.40;97.30
18712;DHT22;9485;49.386;8.674;2022-11-18T23:25:32;11.40;97.40
18712;DHT22;9485;49.386;8.674;2022-11-18T23:30:52;11.40;97.50
18712;DHT22;9485;49.386;8.674;2022-11-18T23:36:23;11.40;97.60
18712;DHT22;9485;49.386;8.674;2022-11-18T23:41:46;11.50;97.70
18712;DHT22;9485;49.386;8.674;2022-11-18T23:47:07;11.50;97.80
18712;DHT22;9485;49.386;8.674;2022-11-18T23:52:28;11.60;97.70
18712;DHT22;9485;49.386;8.674;2022-11-18T23:57:49;11.60;97.50
